YRP weather

Ottawa / Carp Airport
Ottawa, Ontario, Canada

Public forecast

Using degrees Celsius for public forecast. Weather courtesy of forecast.io.

Closest aviation weather report (METAR) to Ottawa / Carp Airport

Closest report is Ottawa Macdonald-Cartier International Airport, 14.9 nm (27.6 km) E. Retrieved 2019/11/12 22:00 UTC (42 minutes ago):

CYOW 122200Z 28011G22KT 15SM SCT035 M10/M16 A3006 RMK SC3 SLP190

Closest aviation forecast (TAF) to Ottawa / Carp Airport

Closest forecast is Ottawa Macdonald-Cartier International Airport, 14.9 nm (27.6 km) E. Retrieved 2019/11/12 21:42 UTC (60 minutes ago):

TAF CYOW 122038Z 1221/1318 29012G22KT P6SM BKN025 TEMPO 1221/1317 BKN020 BECMG 1308/1310 29010KT RMK NXT FCST BY 130000Z